Time;durP1;ratioP1;P1;durP2;ratioP2;P2;SDS_P1;SDS_P2;PMS_P1;PMS_P2;Temp;Humidity;BMP_temperature;BMP_pressure;BME280_temperature;BME280_humidity;BME280_pressure;Samples;Min_cycle;Max_cycle;Signal;HPM_P1;HPM_P2
2021/08/08 00:02:00;;;;;;;10.68;8.23;;;;;;;14.71;100.00;100048.94;3607834;39;20279;-64
2021/08/08 00:04:27;;;;;;;12.90;8.98;;;;;;;14.74;100.00;100041.47;3608539;39;20054;-64
2021/08/08 00:06:54;;;;;;;11.85;8.82;;;;;;;14.70;100.00;100036.44;3609384;39;20047;-64
2021/08/08 00:09:20;;;;;;;12.70;9.52;;;;;;;14.73;100.00;100034.41;3609537;39;20040;-64
2021/08/08 00:11:47;;;;;;;15.98;10.90;;;;;;;14.76;100.00;100039.44;3609162;39;20078;-63
2021/08/08 00:14:13;;;;;;;14.02;11.18;;;;;;;14.76;100.00;100050.28;3608830;39;20039;-63
2021/08/08 00:16:40;;;;;;;15.35;10.98;;;;;;;14.83;100.00;100045.81;3609710;39;20042;-64
2021/08/08 00:19:06;;;;;;;14.40;10.60;;;;;;;14.83;100.00;100046.66;3609448;39;20044;-63
2021/08/08 00:21:34;;;;;;;15.02;12.35;;;;;;;14.84;100.00;100044.75;3609285;39;20293;-64
2021/08/08 00:24:00;;;;;;;18.33;12.95;;;;;;;14.82;100.00;100044.94;3608932;39;20059;-64
2021/08/08 00:26:27;;;;;;;16.58;13.80;;;;;;;14.87;100.00;100037.13;3608937;39;20069;-63
2021/08/08 00:28:53;;;;;;;19.60;14.02;;;;;;;14.84;100.00;100032.09;3609420;39;20043;-63
2021/08/08 00:31:23;;;;;;;17.52;13.38;;;;;;;14.92;100.00;100042.00;3609355;39;20052;-64
2021/08/08 00:33:50;;;;;;;18.27;13.20;;;;;;;14.91;100.00;100026.75;3609205;39;20036;-64
2021/08/08 00:36:18;;;;;;;16.25;12.85;;;;;;;14.90;100.00;100027.78;3662698;22;20279;-63
2021/08/08 00:38:46;;;;;;;16.92;14.48;;;;;;;14.88;100.00;100027.13;3618419;39;20055;-64
2021/08/08 00:41:13;;;;;;;15.82;13.27;;;;;;;14.83;100.00;100029.56;3619335;39;20052;-64
2021/08/08 00:43:39;;;;;;;18.88;13.10;;;;;;;14.96;100.00;100021.63;3619619;39;20031;-64
2021/08/08 00:46:07;;;;;;;20.40;13.90;;;;;;;14.92;100.00;100025.72;3619206;39;20038;-64
2021/08/08 00:48:33;;;;;;;16.85;13.70;;;;;;;14.87;100.00;100030.88;3619327;39;20115;-64
2021/08/08 00:51:00;;;;;;;16.08;13.02;;;;;;;14.88;100.00;100019.00;3619336;39;20388;-64
2021/08/08 00:53:28;;;;;;;19.17;13.35;;;;;;;14.85;100.00;100022.06;3619159;39;20039;-64
2021/08/08 00:55:56;;;;;;;19.88;14.02;;;;;;;14.86;100.00;100034.59;3619528;39;20177;-64
2021/08/08 00:58:22;;;;;;;19.55;13.88;;;;;;;14.90;100.00;100035.94;3616244;39;20070;-64
2021/08/08 01:00:50;;;;;;;18.83;14.35;;;;;;;14.89;100.00;100045.91;3619155;39;20031;-64
2021/08/08 01:05:50;;;;;;;19.30;13.93;;;;;;;14.90;100.00;100044.06;3634397;22;20051;-64
2021/08/08 01:08:22;;;;;;;19.70;14.98;;;;;;;14.96;100.00;100045.16;3619201;39;20035;-64
2021/08/08 01:10:48;;;;;;;20.33;15.55;;;;;;;15.01;100.00;100048.16;3619235;39;20033;-64
2021/08/08 01:13:17;;;;;;;20.83;15.65;;;;;;;14.97;100.00;100058.56;3619528;39;20087;-65
2021/08/08 01:15:44;;;;;;;20.75;15.35;;;;;;;14.98;100.00;100053.97;3618589;39;20032;-64
2021/08/08 01:18:14;;;;;;;24.08;15.95;;;;;;;15.01;100.00;100049.00;3618942;39;20389;-64
2021/08/08 01:20:41;;;;;;;24.10;16.75;;;;;;;15.00;100.00;100052.75;3618948;39;20031;-64
2021/08/08 01:23:10;;;;;;;21.95;15.40;;;;;;;14.94;100.00;100053.47;3617474;39;20047;-64
2021/08/08 01:25:39;;;;;;;;;;;;;;;14.94;100.00;100056.19;3615509;39;20024;-64
2021/08/08 01:28:06;;;;;;;18.80;15.90;;;;;;;14.97;100.00;100063.97;3618657;39;19946;-64
2021/08/08 01:30:32;;;;;;;19.83;15.93;;;;;;;15.03;100.00;100068.66;3619102;39;20272;-64
2021/08/08 01:33:04;;;;;;;21.50;16.25;;;;;;;15.03;100.00;100063.22;3618945;39;20326;-63
2021/08/08 01:35:30;;;;;;;23.05;16.77;;;;;;;15.06;100.00;100070.13;3619095;39;20386;-64
2021/08/08 01:37:57;;;;;;;22.77;16.45;;;;;;;15.05;100.00;100071.16;3618907;39;20321;-64
2021/08/08 01:40:27;;;;;;;21.25;16.42;;;;;;;15.01;100.00;100076.09;3618809;39;20081;-65
2021/08/08 01:42:57;;;;;;;20.67;16.40;;;;;;;15.04;100.00;100081.16;3618849;39;20378;-65
2021/08/08 01:45:24;;;;;;;18.83;15.02;;;;;;;15.02;100.00;100083.22;3619215;39;20034;-64
2021/08/08 01:47:55;;;;;;;23.02;15.05;;;;;;;15.13;100.00;100086.50;3619163;39;20047;-64
2021/08/08 01:50:23;;;;;;;20.80;15.25;;;;;;;15.09;100.00;100091.47;3618831;39;20130;-64
2021/08/08 01:52:50;;;;;;;19.70;16.02;;;;;;;15.12;100.00;100092.94;3618878;39;20028;-64
2021/08/08 01:55:18;;;;;;;22.17;15.27;;;;;;;15.06;100.00;100084.53;3619024;39;20039;-64
2021/08/08 01:57:45;;;;;;;23.65;16.55;;;;;;;15.00;100.00;100090.69;3616799;39;20055;-64
2021/08/08 02:00:14;;;;;;;23.23;16.08;;;;;;;14.98;100.00;100087.31;3618330;39;20286;-64
2021/08/08 02:02:49;;;;;;;23.10;17.40;;;;;;;14.95;100.00;100101.22;3618995;39;20071;-63
2021/08/08 02:05:16;;;;;;;25.17;17.83;;;;;;;14.95;100.00;100103.94;3618837;39;20050;-64
2021/08/08 02:07:43;;;;;;;22.25;16.90;;;;;;;14.98;100.00;100103.56;3618863;39;20079;-64
2021/08/08 02:10:10;;;;;;;25.77;17.20;;;;;;;14.98;100.00;100100.84;3618472;39;20043;-64
2021/08/08 02:12:36;;;;;;;23.48;16.40;;;;;;;15.01;100.00;100119.47;3618644;39;20039;-64
2021/08/08 02:15:05;;;;;;;24.92;16.40;;;;;;;15.00;100.00;100106.97;3618831;39;20051;-64
2021/08/08 02:17:33;;;;;;;22.92;15.90;;;;;;;15.00;100.00;100128.63;3618806;39;20048;-64
2021/08/08 02:19:59;;;;;;;22.52;15.85;;;;;;;15.01;100.00;100132.19;3618710;39;20031;-63
2021/08/08 02:22:26;;;;;;;23.95;15.52;;;;;;;15.07;100.00;100132.31;3618327;39;20035;-64
2021/08/08 02:24:52;;;;;;;22.95;15.40;;;;;;;15.10;100.00;100138.38;3618531;39;20407;-66
2021/08/08 02:27:19;;;;;;;22.25;13.75;;;;;;;15.05;100.00;100142.47;3618124;39;20043;-64
2021/08/08 02:29:45;;;;;;;18.92;12.80;;;;;;;15.05;100.00;100142.47;3618576;39;20035;-65
2021/08/08 02:32:14;;;;;;;18.52;11.85;;;;;;;15.12;100.00;100155.28;3618169;39;20039;-65
2021/08/08 02:34:42;;;;;;;22.13;12.75;;;;;;;15.11;100.00;100143.59;3618774;39;20527;-65
2021/08/08 02:37:09;;;;;;;15.30;10.90;;;;;;;15.09;100.00;100148.38;3619057;39;20031;-65
2021/08/08 02:39:35;;;;;;;13.88;8.55;;;;;;;15.11;100.00;100150.91;3618415;39;20039;-66
2021/08/08 02:44:31;;;;;;;13.05;8.57;;;;;;;15.20;100.00;100155.22;3632618;22;20372;-67
2021/08/08 02:46:57;;;;;;;12.18;8.07;;;;;;;15.14;100.00;100151.38;3608220;39;20031;-65
2021/08/08 02:49:24;;;;;;;12.77;7.90;;;;;;;15.16;100.00;100154.72;3608415;39;20387;-66
2021/08/08 02:51:54;;;;;;;13.32;8.23;;;;;;;15.21;100.00;100165.03;3608556;39;20028;-64
2021/08/08 02:54:21;;;;;;;18.75;9.13;;;;;;;15.18;100.00;100165.38;3607890;39;20133;-66
2021/08/08 02:56:47;;;;;;;13.90;9.27;;;;;;;15.13;100.00;100160.50;3606134;39;20054;-65
2021/08/08 02:59:14;;;;;;;13.30;8.65;;;;;;;15.22;100.00;100164.84;3608256;39;20047;-68
2021/08/08 03:01:40;;;;;;;17.70;10.85;;;;;;;15.30;100.00;100171.22;3608290;39;20046;-68
2021/08/08 03:04:07;;;;;;;15.57;9.90;;;;;;;15.32;100.00;100174.59;3608275;39;20059;-67
2021/08/08 03:06:34;;;;;;;14.93;10.50;;;;;;;15.34;100.00;100184.22;3608287;39;20042;-66
2021/08/08 03:09:01;;;;;;;13.80;9.82;;;;;;;15.32;100.00;100180.00;3608093;39;20035;-67
2021/08/08 03:11:28;;;;;;;16.60;10.35;;;;;;;15.42;100.00;100192.28;3608540;39;20044;-67
2021/08/08 03:13:54;;;;;;;13.45;10.23;;;;;;;15.53;100.00;100179.28;3607910;39;20032;-67
2021/08/08 03:16:21;;;;;;;16.60;11.88;;;;;;;15.49;100.00;100180.69;3608181;39;20301;-68
2021/08/08 03:18:47;;;;;;;20.60;11.68;;;;;;;15.45;100.00;100168.53;3608308;39;20035;-68
2021/08/08 03:21:14;;;;;;;18.83;12.52;;;;;;;15.47;100.00;100177.31;3608200;39;20039;-68
2021/08/08 03:23:40;;;;;;;19.52;12.18;;;;;;;15.56;100.00;100187.91;3608271;39;20062;-68
2021/08/08 03:26:08;;;;;;;22.00;12.45;;;;;;;15.52;100.00;100189.31;3607730;39;20367;-68
2021/08/08 03:28:34;;;;;;;17.25;12.32;;;;;;;15.52;100.00;100191.19;3607988;39;20040;-66
2021/08/08 03:31:01;;;;;;;22.88;13.20;;;;;;;15.50;100.00;100196.78;3608314;39;20104;-67
2021/08/08 03:33:27;;;;;;;24.90;13.90;;;;;;;15.52;100.00;100207.44;3608355;39;20036;-66
2021/08/08 03:35:53;;;;;;;25.40;14.43;;;;;;;15.58;100.00;100206.72;3608480;39;20060;-68
2021/08/08 03:41:14;;;;;;;26.05;15.52;;;;;;;15.47;100.00;100209.88;3609190;22;20051;-67
2021/08/08 03:43:40;;;;;;;24.35;17.13;;;;;;;15.44;100.00;100213.78;3606714;39;20043;-65
2021/08/08 03:46:07;;;;;;;35.78;18.15;;;;;;;15.52;100.00;100223.72;3607396;39;20061;-66
2021/08/08 03:48:34;;;;;;;31.42;18.83;;;;;;;15.42;100.00;100232.94;3607796;39;20044;-65
2021/08/08 03:51:00;;;;;;;39.92;18.52;;;;;;;15.45;100.00;100236.34;3608175;39;20036;-65
2021/08/08 03:53:27;;;;;;;37.58;19.00;;;;;;;15.39;100.00;100240.63;3607602;39;20039;-65
2021/08/08 03:55:53;;;;;;;36.75;19.08;;;;;;;15.37;100.00;100242.66;3608009;39;20115;-65
2021/08/08 03:58:22;;;;;;;30.70;17.23;;;;;;;15.27;100.00;100248.34;3605143;39;20287;-64
2021/08/08 04:00:48;;;;;;;30.90;18.23;;;;;;;15.29;100.00;100246.28;3607810;39;20031;-65
2021/08/08 04:03:14;;;;;;;38.10;17.98;;;;;;;15.24;100.00;100244.13;3608126;39;20062;-64
2021/08/08 04:05:41;;;;;;;38.95;17.90;;;;;;;15.21;100.00;100259.91;3607880;39;20028;-64
2021/08/08 04:08:07;;;;;;;37.95;18.25;;;;;;;15.17;100.00;100259.41;3607633;39;20329;-65
2021/08/08 04:10:34;;;;;;;42.17;18.23;;;;;;;15.20;100.00;100266.34;3607760;39;20124;-64
2021/08/08 04:13:00;;;;;;;33.17;18.33;;;;;;;15.09;100.00;100264.91;3607907;39;20378;-64
2021/08/08 04:15:28;;;;;;;31.02;16.95;;;;;;;15.05;100.00;100272.56;3607720;39;20044;-63
2021/08/08 04:17:55;;;;;;;33.00;16.60;;;;;;;15.13;100.00;100273.53;3607660;39;20046;-64
2021/08/08 04:20:21;;;;;;;32.85;18.23;;;;;;;15.17;100.00;100278.41;3607633;39;20404;-64
2021/08/08 04:22:48;;;;;;;48.63;18.35;;;;;;;15.13;100.00;100282.47;3607538;39;20053;-63
2021/08/08 04:25:14;;;;;;;49.72;18.33;;;;;;;15.09;100.00;100275.75;3601791;39;20042;-64
2021/08/08 04:27:41;;;;;;;40.35;18.13;;;;;;;15.10;100.00;100284.72;3607730;39;20048;-64
2021/08/08 04:30:08;;;;;;;38.08;17.90;;;;;;;15.01;100.00;100282.06;3607298;39;20297;-64
2021/08/08 04:32:35;;;;;;;35.53;17.42;;;;;;;15.00;100.00;100285.81;3608323;39;20335;-63
2021/08/08 04:35:02;;;;;;;33.10;15.50;;;;;;;14.90;100.00;100271.66;3607645;39;20318;-64
2021/08/08 04:37:29;;;;;;;35.05;14.80;;;;;;;14.95;100.00;100288.19;3607613;39;20040;-63
2021/08/08 04:39:55;;;;;;;31.70;14.15;;;;;;;15.00;100.00;100280.38;3607486;39;20054;-64
2021/08/08 04:45:21;;;;;;;23.23;13.43;;;;;;;15.01;100.00;100297.47;3611111;22;20333;-63
2021/08/08 04:47:49;;;;;;;30.88;14.65;;;;;;;15.00;100.00;100299.38;3617978;39;20035;-63
2021/08/08 04:50:16;;;;;;;35.15;15.00;;;;;;;14.96;100.00;100303.44;3617303;39;20090;-62
2021/08/08 04:52:45;;;;;;;30.13;14.50;;;;;;;14.94;100.00;100297.34;3619552;39;20038;-63
2021/08/08 04:55:12;;;;;;;24.90;13.60;;;;;;;14.97;100.00;100302.44;3619462;39;20069;-63
2021/08/08 04:57:38;;;;;;;28.05;15.18;;;;;;;14.93;100.00;100298.38;3617037;39;20068;-63
2021/08/08 05:00:06;;;;;;;31.42;14.93;;;;;;;14.98;100.00;100301.38;3618743;39;20321;-63
2021/08/08 05:02:33;;;;;;;33.13;15.02;;;;;;;14.89;100.00;100313.31;3619394;39;20047;-63
2021/08/08 05:05:03;;;;;;;31.58;15.43;;;;;;;14.96;100.00;100311.56;3619289;39;20377;-63
2021/08/08 05:07:29;;;;;;;27.02;14.25;;;;;;;14.97;100.00;100315.97;3619677;39;20035;-63
2021/08/08 05:09:56;;;;;;;25.02;13.95;;;;;;;14.87;100.00;100318.91;3619393;39;20039;-63
2021/08/08 05:12:22;;;;;;;32.58;14.52;;;;;;;14.92;100.00;100315.66;3618934;39;20082;-63
2021/08/08 05:14:49;;;;;;;25.63;13.63;;;;;;;15.02;100.00;100329.00;3615720;39;20043;-63
2021/08/08 05:17:15;;;;;;;29.38;13.45;;;;;;;14.93;100.00;100330.03;3615686;39;20035;-63
2021/08/08 05:19:41;;;;;;;26.27;13.50;;;;;;;15.02;100.00;100332.53;3618950;39;20027;-63
2021/08/08 05:22:09;;;;;;;18.73;11.70;;;;;;;15.04;100.00;100330.47;3618766;39;20111;-63
2021/08/08 05:24:35;;;;;;;21.92;11.82;;;;;;;15.11;100.00;100335.22;3612865;39;20035;-63
2021/08/08 05:27:02;;;;;;;25.83;12.43;;;;;;;15.16;100.00;100332.78;3619655;39;20057;-63
2021/08/08 05:29:28;;;;;;;24.35;12.57;;;;;;;15.15;100.00;100337.38;3618707;39;20397;-64
2021/08/08 05:31:55;;;;;;;23.80;12.25;;;;;;;15.11;100.00;100340.63;3619259;39;20043;-62
2021/08/08 05:34:21;;;;;;;22.55;12.35;;;;;;;15.12;100.00;100336.88;3618935;39;20043;-62
2021/08/08 05:36:48;;;;;;;22.27;12.40;;;;;;;15.10;100.00;100339.75;3619119;39;20057;-62
2021/08/08 05:39:15;;;;;;;23.02;12.13;;;;;;;15.10;100.00;100345.19;3618882;39;20412;-62
2021/08/08 05:41:42;;;;;;;23.55;12.25;;;;;;;15.12;100.00;100342.28;3619070;39;20279;-62
2021/08/08 05:44:08;;;;;;;33.55;13.45;;;;;;;15.10;100.00;100345.19;3618339;39;20138;-62
2021/08/08 05:46:35;;;;;;;23.40;12.63;;;;;;;15.11;100.00;100351.47;3619793;39;20027;-62
2021/08/08 05:49:01;;;;;;;27.67;13.07;;;;;;;15.01;100.00;100357.94;3618938;39;20045;-62
2021/08/08 05:51:28;;;;;;;31.73;13.23;;;;;;;15.04;100.00;100360.28;3619114;39;20047;-62
2021/08/08 05:53:55;;;;;;;24.60;13.38;;;;;;;15.10;100.00;100366.03;3619062;39;20045;-62
2021/08/08 05:59:24;;;;;;;28.13;13.93;;;;;;;15.15;100.00;100360.91;3628569;22;20311;-62
2021/08/08 06:01:50;;;;;;;34.72;12.65;;;;;;;15.17;100.00;100354.28;3588067;40;20112;-62
2021/08/08 06:04:17;;;;;;;28.15;12.30;;;;;;;15.17;100.00;100367.03;3588222;40;20273;-63
2021/08/08 06:06:44;;;;;;;30.92;12.40;;;;;;;15.18;100.00;100360.56;3588815;40;20044;-63
2021/08/08 06:09:10;;;;;;;22.02;12.32;;;;;;;15.28;100.00;100363.88;3581465;40;20060;-62
2021/08/08 06:11:37;;;;;;;26.77;11.70;;;;;;;15.14;100.00;100364.66;3588493;40;20043;-62
2021/08/08 06:14:04;;;;;;;25.30;11.13;;;;;;;15.22;100.00;100372.72;3587780;39;20036;-62
2021/08/08 06:16:32;;;;;;;23.88;9.90;;;;;;;15.16;100.00;100377.00;3588181;40;20047;-62
2021/08/08 06:18:58;;;;;;;23.85;9.30;;;;;;;15.22;100.00;100376.31;3588535;40;20040;-62
2021/08/08 06:21:25;;;;;;;20.67;10.15;;;;;;;15.26;100.00;100381.38;3588552;40;20035;-62
2021/08/08 06:23:51;;;;;;;23.50;10.23;;;;;;;15.34;100.00;100384.88;3583732;40;20060;-62
2021/08/08 06:26:17;;;;;;;29.00;9.52;;;;;;;15.44;100.00;100392.75;3586417;40;20044;-62
2021/08/08 06:28:45;;;;;;;20.52;9.88;;;;;;;15.46;100.00;100395.28;3588563;40;20032;-63
2021/08/08 06:31:11;;;;;;;22.45;9.73;;;;;;;15.53;100.00;100393.56;3588751;40;20162;-62
2021/08/08 06:33:39;;;;;;;23.13;8.93;;;;;;;15.62;100.00;100395.22;3588135;40;20587;-62
2021/08/08 06:36:05;;;;;;;17.92;8.40;;;;;;;15.70;100.00;100403.25;3588169;40;20066;-62
2021/08/08 06:38:32;;;;;;;17.85;8.93;;;;;;;15.55;100.00;100405.09;3588278;40;20382;-62
2021/08/08 06:40:58;;;;;;;15.98;7.90;;;;;;;15.47;100.00;100415.97;3588209;40;20044;-62
2021/08/08 06:43:24;;;;;;;17.58;8.70;;;;;;;15.41;100.00;100415.69;3588133;40;20036;-63
2021/08/08 06:45:51;;;;;;;15.18;8.30;;;;;;;15.49;100.00;100419.34;3588319;40;20052;-63
2021/08/08 06:48:17;;;;;;;15.35;9.32;;;;;;;15.28;100.00;100428.13;3587713;40;20311;-62
2021/08/08 06:50:45;;;;;;;18.95;9.15;;;;;;;15.22;100.00;100429.66;3588344;40;20045;-62
2021/08/08 06:53:22;;;;;;;21.15;9.77;;;;;;;15.27;100.00;100432.72;3617789;22;20060;-62
2021/08/08 06:55:48;;;;;;;21.23;8.77;;;;;;;15.34;100.00;100432.81;3593816;39;20052;-63
2021/08/08 07:01:21;;;;;;;15.10;8.73;;;;;;;15.65;100.00;100443.69;3622501;22;20121;-63
2021/08/08 07:03:47;;;;;;;19.73;8.50;;;;;;;15.62;100.00;100446.75;3597872;39;20302;-63
2021/08/08 07:06:15;;;;;;;14.25;7.38;;;;;;;15.69;100.00;100453.13;3597820;39;20028;-62
2021/08/08 07:08:41;;;;;;;19.90;7.70;;;;;;;15.74;100.00;100445.28;3598061;39;20132;-62
2021/08/08 07:11:08;;;;;;;18.98;7.63;;;;;;;15.89;100.00;100448.09;3598181;39;20032;-62
2021/08/08 07:13:34;;;;;;;22.42;8.10;;;;;;;15.73;100.00;100453.63;3597777;39;20044;-61
2021/08/08 07:16:01;;;;;;;18.30;7.90;;;;;;;15.73;100.00;100446.31;3598204;39;20048;-62
2021/08/08 07:18:27;;;;;;;26.13;9.38;;;;;;;15.56;100.00;100452.88;3597931;39;20052;-62
2021/08/08 07:20:54;;;;;;;18.88;8.25;;;;;;;15.64;100.00;100449.28;3597992;39;20036;-62
2021/08/08 07:23:21;;;;;;;22.83;8.23;;;;;;;15.61;100.00;100457.78;3595719;39;20028;-62
2021/08/08 07:25:48;;;;;;;20.67;8.10;;;;;;;15.63;100.00;100448.41;3594481;40;20056;-62
2021/08/08 07:28:14;;;;;;;23.00;8.10;;;;;;;15.62;100.00;100465.75;3597629;39;20047;-62
2021/08/08 07:30:41;;;;;;;26.33;8.50;;;;;;;15.73;100.00;100470.72;3597898;39;20041;-62
2021/08/08 07:33:07;;;;;;;23.45;8.55;;;;;;;15.87;100.00;100465.59;3657483;22;20047;-61
2021/08/08 07:35:36;;;;;;;17.55;6.93;;;;;;;15.95;100.00;100468.25;3608229;39;20036;-62
2021/08/08 07:38:02;;;;;;;25.00;7.53;;;;;;;15.93;100.00;100470.31;3608026;39;20079;-62
2021/08/08 07:40:30;;;;;;;23.23;7.45;;;;;;;16.00;100.00;100476.69;3608240;39;20049;-62
2021/08/08 07:42:56;;;;;;;19.60;7.53;;;;;;;15.88;100.00;100468.13;3608268;39;20044;-62
2021/08/08 07:45:23;;;;;;;28.35;7.57;;;;;;;15.90;100.00;100481.50;3608183;39;20159;-61
2021/08/08 07:47:49;;;;;;;21.30;7.95;;;;;;;16.02;100.00;100480.06;3608363;39;20040;-62
2021/08/08 07:50:16;;;;;;;21.33;6.93;;;;;;;16.39;100.00;100483.00;3607677;39;20080;-61
2021/08/08 07:52:42;;;;;;;23.73;6.30;;;;;;;16.39;100.00;100489.28;3608249;39;20067;-62
2021/08/08 07:55:10;;;;;;;17.88;6.75;;;;;;;16.44;100.00;100483.28;3607833;39;20044;-62
2021/08/08 07:57:38;;;;;;;18.35;5.85;;;;;;;16.60;100.00;100488.56;3607915;39;20044;-61
2021/08/08 08:00:07;;;;;;;19.92;6.82;;;;;;;16.78;100.00;100501.81;3607695;39;20386;-62
2021/08/08 08:02:33;;;;;;;26.05;7.05;;;;;;;17.05;100.00;100496.78;3608442;39;20305;-64
2021/08/08 08:05:00;;;;;;;24.33;6.55;;;;;;;17.05;100.00;100496.78;3608475;39;20044;-62
2021/08/08 08:07:26;;;;;;;22.33;6.25;;;;;;;17.05;100.00;100502.22;3608095;39;20039;-61
2021/08/08 08:09:53;;;;;;;18.30;5.68;;;;;;;17.11;100.00;100490.59;3607826;39;20044;-63
2021/08/08 08:12:19;;;;;;;12.93;6.03;;;;;;;16.86;100.00;100494.59;3607484;39;20039;-62
2021/08/08 08:14:47;;;;;;;16.83;6.07;;;;;;;17.11;100.00;100501.47;3607704;39;20043;-61
2021/08/08 08:17:13;;;;;;;15.02;5.75;;;;;;;16.99;100.00;100513.88;3607830;39;20047;-62
2021/08/08 08:19:40;;;;;;;26.90;6.20;;;;;;;17.33;100.00;100505.13;3607666;39;20049;-61
2021/08/08 08:22:06;;;;;;;19.00;5.60;;;;;;;16.91;100.00;100500.34;3607488;39;20275;-62
2021/08/08 08:24:32;;;;;;;18.85;5.53;;;;;;;16.74;100.00;100500.50;3607476;39;20387;-62
2021/08/08 08:26:59;;;;;;;22.92;5.32;;;;;;;16.85;100.00;100506.50;3609189;39;20035;-62
2021/08/08 08:29:25;;;;;;;19.58;4.95;;;;;;;16.68;100.00;100512.09;3609085;39;20027;-61
2021/08/08 08:31:53;;;;;;;23.63;5.93;;;;;;;16.63;100.00;100507.19;3608984;39;20044;-62
2021/08/08 08:34:19;;;;;;;16.08;5.30;;;;;;;16.83;100.00;100520.28;3609324;39;20036;-62
2021/08/08 08:36:46;;;;;;;22.58;6.75;;;;;;;16.87;100.00;100523.47;3609557;39;20042;-62
2021/08/08 08:42:03;;;;;;;18.60;5.25;;;;;;;16.76;100.00;100533.75;3633069;22;20087;-62
2021/08/08 08:44:30;;;;;;;18.95;6.22;;;;;;;16.93;100.00;100531.75;3619130;39;20047;-62
2021/08/08 08:46:59;;;;;;;18.67;5.75;;;;;;;16.92;100.00;100524.63;3619408;39;20063;-61
2021/08/08 08:49:28;;;;;;;16.65;5.45;;;;;;;16.91;100.00;100536.53;3619425;39;20024;-62
2021/08/08 08:51:56;;;;;;;13.30;4.65;;;;;;;17.26;100.00;100536.00;3619209;39;20031;-62
2021/08/08 08:54:23;;;;;;;18.95;5.25;;;;;;;17.43;100.00;100537.47;3618945;39;20070;-61
2021/08/08 08:56:50;;;;;;;19.52;5.55;;;;;;;17.53;100.00;100534.44;3619264;39;20039;-62
2021/08/08 08:59:18;;;;;;;16.63;5.13;;;;;;;18.12;100.00;100536.19;3619053;39;20408;-62
2021/08/08 09:01:45;;;;;;;13.95;4.10;;;;;;;17.77;100.00;100538.75;3619341;39;20077;-62
2021/08/08 09:04:12;;;;;;;11.52;4.57;;;;;;;17.64;100.00;100536.69;3619002;39;20408;-62
2021/08/08 09:06:41;;;;;;;16.42;4.85;;;;;;;17.32;100.00;100557.00;3619759;39;20057;-63
2021/08/08 09:09:08;;;;;;;17.95;5.05;;;;;;;17.32;100.00;100557.00;3619111;39;20525;-63
2021/08/08 09:11:39;;;;;;;16.75;4.82;;;;;;;17.34;100.00;100555.78;3619181;39;20317;-62
2021/08/08 09:14:05;;;;;;;17.33;5.38;;;;;;;17.30;100.00;100570.78;3618805;39;20027;-63
2021/08/08 09:16:38;;;;;;;15.60;5.80;;;;;;;17.23;100.00;100558.13;3619624;39;20037;-62
2021/08/08 09:19:06;;;;;;;16.38;4.45;;;;;;;17.40;100.00;100578.69;3619373;39;20035;-62
2021/08/08 09:21:35;;;;;;;21.90;5.18;;;;;;;17.49;100.00;100580.25;3619301;39;20040;-62
2021/08/08 09:24:02;;;;;;;;;;;;;;;17.54;100.00;100578.84;3619567;39;20039;-61
2021/08/08 09:26:31;;;;;;;17.20;5.25;;;;;;;17.31;100.00;100575.19;3619257;39;19936;-62
2021/08/08 09:29:09;;;;;;;16.20;4.97;;;;;;;18.11;100.00;100583.56;3619008;39;20059;-61
2021/08/08 09:31:41;;;;;;;20.00;4.57;;;;;;;18.21;100.00;100567.75;3619369;39;20363;-62
2021/08/08 09:34:08;;;;;;;12.77;4.25;;;;;;;18.33;100.00;100580.84;3618627;39;20154;-62
2021/08/08 09:36:42;;;;;;;20.17;5.72;;;;;;;18.46;100.00;100589.16;3618849;39;20038;-61
2021/08/08 09:39:09;;;;;;;14.45;4.22;;;;;;;18.37;100.00;100585.72;3619160;39;20036;-62
2021/08/08 09:41:36;;;;;;;10.77;4.35;;;;;;;18.33;100.00;100597.19;3619315;39;20078;-62
2021/08/08 09:44:06;;;;;;;13.27;4.57;;;;;;;17.92;100.00;100593.19;3618544;39;20115;-61
2021/08/08 09:46:33;;;;;;;19.67;4.32;;;;;;;18.04;100.00;100607.97;3619090;39;20027;-62
2021/08/08 09:49:07;;;;;;;14.65;4.80;;;;;;;18.16;100.00;100610.22;3618773;39;20039;-62
2021/08/08 09:51:33;;;;;;;14.10;4.03;;;;;;;17.90;100.00;100618.91;3619086;39;20061;-62
2021/08/08 09:54:01;;;;;;;14.93;4.57;;;;;;;17.42;100.00;100613.84;3619031;39;20117;-61
2021/08/08 09:56:27;;;;;;;9.43;3.97;;;;;;;17.32;100.00;100616.84;3618656;39;20049;-61
2021/08/08 09:59:04;;;;;;;16.65;4.47;;;;;;;17.40;100.00;100630.38;3618752;39;20043;-62
2021/08/08 10:01:30;;;;;;;14.48;4.50;;;;;;;17.29;100.00;100623.47;3618936;39;20362;-61
2021/08/08 10:03:57;;;;;;;11.60;4.25;;;;;;;17.40;100.00;100635.81;3618844;39;20029;-61
2021/08/08 10:06:23;;;;;;;15.07;3.80;;;;;;;18.06;100.00;100636.91;3618820;39;20059;-62
2021/08/08 10:08:50;;;;;;;13.10;3.92;;;;;;;18.32;100.00;100622.75;3655408;22;20311;-62
2021/08/08 10:11:19;;;;;;;14.93;4.05;;;;;;;18.51;100.00;100627.56;3588447;40;20045;-63
2021/08/08 10:13:52;;;;;;;8.55;3.65;;;;;;;18.53;100.00;100625.47;3588405;40;20032;-62
2021/08/08 10:16:19;;;;;;;20.50;4.40;;;;;;;18.38;100.00;100639.16;3595309;40;20032;-64
2021/08/08 10:18:53;;;;;;;15.27;3.67;;;;;;;18.49;100.00;100631.50;3588140;40;20383;-63
2021/08/08 10:21:19;;;;;;;12.57;3.83;;;;;;;18.42;100.00;100644.22;3588199;40;20033;-63
2021/08/08 10:23:48;;;;;;;16.15;4.30;;;;;;;17.98;100.00;100638.69;3592485;40;20038;-63
2021/08/08 10:26:15;;;;;;;13.38;3.85;;;;;;;17.95;100.00;100644.53;3589434;39;20277;-63
2021/08/08 10:28:43;;;;;;;7.80;3.60;;;;;;;17.71;100.00;100653.84;3588574;40;20299;-63
2021/08/08 10:31:13;;;;;;;16.33;4.28;;;;;;;17.43;100.00;100653.59;3588408;40;20377;-63
2021/08/08 10:33:44;;;;;;;10.35;3.63;;;;;;;17.43;100.00;100661.78;3588307;40;20117;-64
2021/08/08 10:36:20;;;;;;;12.82;4.40;;;;;;;17.62;100.00;100660.38;3587811;40;20316;-63
2021/08/08 10:38:46;;;;;;;12.15;4.28;;;;;;;17.84;100.00;100659.44;3588022;40;20035;-63
2021/08/08 10:41:13;;;;;;;7.85;3.50;;;;;;;18.51;100.00;100660.28;3588202;40;20069;-63
2021/08/08 10:43:44;;;;;;;14.20;3.85;;;;;;;18.35;100.00;100660.50;3588036;39;20041;-63
2021/08/08 10:46:14;;;;;;;13.55;4.40;;;;;;;18.21;100.00;100656.78;3587890;40;20037;-63
2021/08/08 10:48:43;;;;;;;12.55;3.70;;;;;;;18.36;100.00;100656.75;3587675;40;20050;-63
2021/08/08 10:51:18;;;;;;;13.27;3.92;;;;;;;18.72;100.00;100666.78;3588169;40;20043;-63
2021/08/08 10:53:45;;;;;;;11.40;3.50;;;;;;;18.98;100.00;100655.31;3588246;40;20031;-63
2021/08/08 10:56:13;;;;;;;9.90;3.38;;;;;;;19.40;100.00;100671.78;3587667;39;20044;-63
2021/08/08 10:58:40;;;;;;;9.15;3.60;;;;;;;19.28;100.00;100657.00;3588191;40;20024;-62
2021/08/08 11:01:18;;;;;;;13.48;3.30;;;;;;;19.51;100.00;100659.50;3588154;40;20048;-63
2021/08/08 11:03:52;;;;;;;15.18;3.45;;;;;;;18.51;100.00;100681.25;3595338;39;20028;-63
2021/08/08 11:06:21;;;;;;;14.20;4.20;;;;;;;18.71;100.00;100681.44;3588110;40;20040;-63
2021/08/08 11:08:52;;;;;;;14.32;3.28;;;;;;;18.86;100.00;100671.34;3586980;40;20056;-63
2021/08/08 11:11:23;;;;;;;11.30;3.30;;;;;;;18.98;100.00;100670.84;3588540;40;20084;-63
2021/08/08 11:13:49;;;;;;;9.90;3.58;;;;;;;18.77;100.00;100675.22;3587881;40;20041;-63
2021/08/08 11:16:16;;;;;;;11.13;3.28;;;;;;;18.77;100.00;100675.22;3587461;40;20035;-63
2021/08/08 11:18:54;;;;;;;12.27;3.17;;;;;;;18.44;100.00;100686.59;3587928;40;20041;-62
2021/08/08 11:21:21;;;;;;;12.73;3.88;;;;;;;18.36;100.00;100689.47;3588189;40;20042;-62
2021/08/08 11:23:54;;;;;;;12.82;3.78;;;;;;;18.65;100.00;100680.31;3587893;40;20031;-62
2021/08/08 11:26:20;;;;;;;13.43;3.33;;;;;;;18.56;100.00;100679.63;3587670;40;20036;-63
2021/08/08 11:28:51;;;;;;;7.38;3.40;;;;;;;18.60;100.00;100673.78;3588129;40;20056;-63